Data for 05/05/2008

Time Sea-Level Adjusted Pressure Absolute Pressure Temperature Relative Humidity Dew Point   
(mb) (inHg) (mb) (inHg) (C) (F) (%) (C) (F)
00:05 1019 30.09 848 25.04 7 44.6 55 -1.4 29.5
00:10 1019 30.09 848 25.04 7 44.6 55 -1.4 29.4
00:15 1019 30.09 848 25.04 6.9 44.5 56 -1.3 29.6
00:20 1019 30.09 848 25.04 6.8 44.2 56 -1.4 29.4
00:25 1019 30.09 848 25.04 6.7 44 56 -1.5 29.4
00:30 1019 30.09 848 25.04 6.6 43.8 57 -1.4 29.5
00:35 1019 30.09 848 25.04 6.4 43.6 57 -1.4 29.5
00:40 1019 30.09 848 25.04 6.4 43.6 57 -1.5 29.4
00:45 1019 30.09 848 25.04 6.6 43.8 56 -1.6 29.2
00:50 1019 30.09 848 25.04 6.7 44 56 -1.6 29.2
00:55 1019 30.09 848 25.04 6.7 44 56 -1.6 29.2
01:00 1019 30.09 848 25.04 6.6 43.9 56 -1.6 29.2
01:05 1019 30.09 848 25.04 6.5 43.7 56 -1.6 29.2
01:10 1019 30.09 848 25.04 6.4 43.6 56 -1.6 29.1
01:15 1019 30.09 848 25.04 6.4 43.5 56 -1.7 28.9
01:20 1019 30.09 848 25.04 6.6 43.9 55 -1.8 28.7
01:25 1019 30.09 848 25.04 6.8 44.3 54 -1.8 28.8
01:30 1019 30.09 848 25.04 6.9 44.4 54 -1.8 28.7
01:35 1019 30.09 848 25.04 7 44.5 53 -1.9 28.6
01:40 1019 30.09 848 25.04 6.9 44.5 54 -1.8 28.7
01:45 1019 30.09 848 25.04 6.8 44.3 54 -1.8 28.7
01:50 1019 30.09 848 25.04 6.6 44 55 -1.8 28.8
01:55 1019 30.09 848 25.04 6.6 43.8 55 -1.9 28.6
02:00 1019 30.09 848 25.04 6.4 43.6 55 -1.9 28.7
02:05 1019 30.09 848 25.04 6.3 43.4 55 -1.9 28.5
02:10 1019 30.09 848 25.04 6.4 43.5 55 -1.9 28.6
02:15 1019 30.09 848 25.04 6.4 43.5 55 -1.9 28.5
02:20 1019 30.09 848 25.04 6.5 43.7 55 -1.9 28.5
02:25 1019 30.09 848 25.04 6.6 44 55 -1.8 28.8
02:30 1019 30.09 848 25.04 6.6 43.9 55 -1.8 28.8
02:35 1019 30.09 848 25.04 6.4 43.6 55 -1.8 28.8
02:40 1019 30.09 848 25.04 6.2 43.1 56 -1.9 28.6
02:45 1019 30.09 848 25.04 6 42.9 57 -1.8 28.8
02:50 1019 30.09 848 25.04 5.7 42.2 59 -1.7 29
02:55 1019 30.09 848 25.04 5.1 41.2 62 -1.6 29.1
03:00 1019 30.09 848 25.04 4.6 40.2 64 -1.7 29
03:05 1019 30.09 848 25.04 4.5 40 64 -1.8 28.7
03:10 1019 30.09 848 25.04 4.7 40.5 63 -1.7 28.9
03:15 1019 30.09 848 25.04 4.5 40.2 64 -1.8 28.8
03:20 1019 30.09 848 25.04 4.3 39.8 65 -1.7 28.9
03:25 1019 30.09 848 25.04 4.1 39.5 66 -1.7 28.9
03:30 1019 30.09 848 25.04 4 39.3 66 -1.7 28.9
03:35 1019 30.09 848 25.04 4.1 39.4 66 -1.7 28.9
03:40 1019 30.09 848 25.04 4.2 39.5 66 -1.6 29.1
03:45 1019 30.09 848 25.04 4 39.2 67 -1.6 29
03:50 1019 30.09 848 25.04 4 39.1 67 -1.7 29
03:55 1019 30.09 848 25.04 3.9 39.1 67 -1.7 28.9
04:00 1019 30.09 848 25.04 4 39.1 67 -1.6 29.1
04:05 1019 30.09 849 25.07 3.9 39 67 -1.7 29
04:10 1019 30.09 848 25.04 4.1 39.3 65 -1.8 28.7
04:15 1019 30.09 849 25.07 4.3 39.7 65 -1.7 28.9
04:20 1019 30.09 849 25.07 4.3 39.8 65 -1.7 29
04:25 1019 30.09 849 25.07 4.1 39.4 66 -1.7 28.9
04:30 1019 30.09 849 25.07 3.8 38.8 67 -1.8 28.7
04:35 1019 30.09 849 25.07 3.6 38.4 68 -1.7 28.9
04:40 1019 30.09 849 25.07 3.4 38.1 68 -1.9 28.5
04:45 1019 30.09 849 25.07 3.6 38.4 67 -1.9 28.6
04:50 1019 30.09 849 25.07 3.7 38.6 67 -1.9 28.6
04:55 1019 30.09 849 25.07 3.9 39 66 -1.9 28.6
05:00 1019 30.09 849 25.07 3.9 39 66 -1.8 28.7
05:05 1019 30.09 849 25.07 3.8 38.8 67 -1.9 28.7
05:10 1019 30.09 849 25.07 3.8 38.8 66 -2 28.3
05:15 1019 30.09 849 25.07 4 39.2 65 -1.9 28.5
05:20 1019 30.09 849 25.07 4 39.3 65 -1.9 28.5
05:25 1019 30.09 849 25.07 4.1 39.4 64 -2 28.5
05:30 1019 30.09 848 25.04 4.2 39.5 64 -2 28.5
05:35 1019 30.09 848 25.04 4.1 39.3 65 -1.9 28.6
05:40 1019 30.09 848 25.04 3.9 39 66 -1.9 28.5
05:45 1019 30.09 848 25.04 3.7 38.7 66 -2 28.5
05:50 1019 30.09 848 25.04 3.7 38.6 67 -2 28.5
05:55 1019 30.09 848 25.04 3.7 38.6 66 -2 28.4
06:00 1019 30.09 849 25.07 3.9 39 65 -2 28.3
06:05 1019 30.09 849 25.07 4.1 39.4 64 -2 28.4
06:10 1019 30.09 848 25.04 4.3 39.7 64 -2 28.5
06:15 1019 30.09 849 25.07 4.2 39.5 65 -1.9 28.6
06:20 1019 30.09 849 25.07 4 39.3 65 -2 28.5
06:25 1019 30.09 849 25.07 4.2 39.6 64 -2.1 28.3
06:30 1019 30.09 849 25.07 4.6 40.3 62 -2 28.5
06:35 1019 30.09 849 25.07 4.6 40.3 62 -1.9 28.6
06:40 1019 30.09 849 25.07 4.5 40 63 -1.9 28.7
06:45 1019 30.09 849 25.07 4.4 39.8 64 -1.9 28.6
06:50 1019 30.09 849 25.07 4.4 39.9 64 -1.9 28.6
06:55 1019 30.09 849 25.07 4.4 40 64 -1.8 28.8
07:00 1019 30.09 849 25.07 4.4 39.8 64 -1.8 28.7
07:05 1019 30.09 849 25.07 4.4 39.9 65 -1.6 29.1
07:10 1019 30.09 849 25.07 4.3 39.8 65 -1.6 29.1
07:15 1019 30.09 849 25.07 4.5 40 65 -1.5 29.3
07:20 1019 30.09 849 25.07 4.7 40.5 64 -1.5 29.3
07:25 1019 30.09 849 25.07 5.2 41.3 63 -1.4 29.5
07:30 1019 30.09 849 25.07 5.6 42 61 -1.3 29.7
07:35 1019 30.09 849 25.07 6 42.8 60 -1.1 30
07:40 1019 30.09 849 25.07 6.4 43.5 59 -0.9 30.3
07:45 1019 30.09 849 25.07 6.7 44.1 59 -0.8 30.5
07:50 1019 30.09 849 25.07 6.9 44.4 59 -0.5 31.1
07:55 1019 30.09 849 25.07 7 44.5 59 -0.4 31.2
08:00 1019 30.09 849 25.07 7.2 45 58 -0.4 31.3
08:05 1019 30.09 848 25.04 7.7 45.9 56 -0.6 30.9
08:10 1019 30.09 848 25.04 8.3 46.9 53 -0.7 30.8
08:15 1019 30.09 848 25.04 8.8 47.9 51 -0.8 30.6
08:20 1019 30.09 848 25.04 9 48.3 51 -0.7 30.8
08:25 1019 30.09 848 25.04 9.2 48.5 50 -0.6 31
08:30 1019 30.09 848 25.04 9.4 49 48 -0.8 30.5
08:35 1019 30.09 848 25.04 9.7 49.4 47 -0.9 30.3
08:40 1019 30.09 848 25.04 10.2 50.4 46 -0.9 30.4
08:45 1019 30.09 848 25.04 10.5 50.9 45 -0.8 30.5
08:50 1019 30.09 848 25.04 11 51.8 43 -1.1 30
08:55 1019 30.09 848 25.04 11.3 52.4 42 -1.1 30
09:00 1019 30.09 848 25.04 12.1 53.7 40 -1.1 30.1
09:05 1019 30.09 848 25.04 12.3 54.2 40 -0.8 30.5
09:10 1019 30.09 848 25.04 12.2 53.9 40 -1.1 30
09:15 1019 30.09 848 25.04 12 53.5 40 -1.1 30
09:20 1019 30.09 848 25.04 12 53.7 41 -0.9 30.4
09:25 1019 30.09 848 25.04 12.3 54.1 40 -0.8 30.6
09:30 1019 30.09 848 25.04 12.5 54.5 39 -1.2 29.9
09:35 1019 30.09 848 25.04 12.8 55 35 -2.1 28.2
09:40 1019 30.09 848 25.04 12.8 55 37 -1.4 29.5
09:45 1019 30.09 848 25.04 12.5 54.5 36 -2 28.4
09:50 1019 30.09 848 25.04 12.7 54.8 36 -1.9 28.6
09:55 1019 30.09 848 25.04 13.6 56.4 34 -2 28.5
10:00 1019 30.09 848 25.04 12.9 55.3 37 -1.4 29.5
10:05 1019 30.09 848 25.04 14 57.2 34 -1.4 29.5
10:10 1019 30.09 848 25.04 14.2 57.5 34 -1.4 29.5
10:15 1019 30.09 848 25.04 13.7 56.7 34 -1.7 29
10:20 1019 30.09 848 25.04 14.2 57.5 33 -1.7 29
10:25 1019 30.09 848 25.04 14.7 58.5 32 -1.6 29
10:30 1019 30.09 848 25.04 14.5 58.2 33 -1.5 29.3
10:35 1019 30.09 848 25.04 14.9 58.8 32 -1.7 28.9
10:40 1019 30.09 848 25.04 15 59 31 -1.9 28.5
10:45 1019 30.09 848 25.04 14.8 58.7 33 -1.1 30
10:50 1019 30.09 848 25.04 14.5 58.1 32 -1.9 28.6
10:55 1018 30.06 848 25.04 15.6 60.2 30 -1.8 28.8
11:00 1018 30.06 848 25.04 16.4 61.5 30 -1.1 30
11:05 1018 30.06 848 25.04 16.8 62.2 30 -0.8 30.5
11:10 1018 30.06 848 25.04 16.5 61.7 29 -1.3 29.7
11:15 1018 30.06 847 25.01 16.9 62.4 28 -1.9 28.6
11:20 1018 30.06 847 25.01 16.8 62.2 28 -1.9 28.6
11:25 1018 30.06 847 25.01 15.9 60.5 29 -2.1 28.2
11:30 1018 30.06 847 25.01 16 60.7 28 -2.3 27.9
11:35 1018 30.06 847 25.01 17.3 63.2 26 -2.2 28.1
11:40 1018 30.06 847 25.01 17.3 63.1 27 -1.8 28.7
11:45 1018 30.06 847 25.01 17.8 64 26 -1.7 28.9
11:50 1018 30.06 847 25.01 17.8 64.1 26 -1.6 29.2
11:55 1018 30.06 847 25.01 18.1 64.6 26 -1.5 29.3
12:00 1018 30.06 847 25.01 18.4 65.2 25 -1.9 28.6
12:05 1018 30.06 847 25.01 18.2 64.8 25 -2 28.4
12:10 1018 30.06 847 25.01 17.8 64 26 -2 28.5
12:15 1017 30.03 847 25.01 18 64.5 25 -2 28.4
12:20 1017 30.03 847 25.01 17.8 64.1 27 -1.5 29.3
12:25 1017 30.03 847 25.01 18.3 64.9 24 -2.6 27.2
12:30 1017 30.03 846 24.98 18.7 65.7 22 -3.4 25.9
12:35 1017 30.03 846 24.98 18.9 66 21 -3.8 25.1
12:40 1017 30.03 846 24.98 18.9 66 22 -3.1 26.5
12:45 1017 30.03 846 24.98 19 66.1 22 -3.3 26.1
12:50 1017 30.03 846 24.98 19.1 66.4 22 -3 26.5
12:55 1017 30.03 846 24.98 19.6 67.3 21 -3.3 26
13:00 1017 30.03 846 24.98 19.2 66.5 22 -2.6 27.3
13:05 1017 30.03 846 24.98 19 66.2 22 -3.3 26.1
13:10 1017 30.03 846 24.98 18.5 65.3 23 -2.9 26.7
13:15 1017 30.03 846 24.98 18.7 65.6 23 -2.8 27
13:20 1017 30.03 846 24.98 19.1 66.4 22 -3.1 26.4
13:25 1017 30.03 846 24.98 18.9 66 24 -2.2 28
13:30 1017 30.03 846 24.98 19.5 67.1 23 -2.1 28.3
13:35 1017 30.03 846 24.98 19 66.1 21 -3.4 25.8
13:40 1016 30 846 24.98 18.6 65.4 22 -3.6 25.4
13:45 1016 30 846 24.98 19.1 66.5 23 -2.1 28.2
13:50 1016 30 846 24.98 20.2 68.4 22 -2.1 28.2
13:55 1016 30 846 24.98 20.4 68.7 22 -2.1 28.2
14:00 1016 30 846 24.98 20.1 68.2 22 -2.2 28
14:05 1016 30 845 24.95 19.9 67.9 21 -2.6 27.4
14:10 1016 30 845 24.95 18.9 66 23 -2.6 27.4
14:15 1016 30 845 24.95 18.8 65.8 23 -2.7 27.1
14:20 1016 30 845 24.95 19.2 66.6 22 -3.1 26.4
14:25 1016 30 845 24.95 19.8 67.7 22 -2.4 27.7
14:30 1016 30 845 24.95 20.1 68.1 21 -2.9 26.7
14:35 1016 30 845 24.95 20.3 68.5 21 -2.4 27.6
14:40 1016 30 845 24.95 20.9 69.7 20 -3 26.6
14:45 1016 30 845 24.95 19.9 67.8 21 -2.8 27
14:50 1015 29.97 845 24.95 20.3 68.5 20 -3 26.6
14:55 1015 29.97 845 24.95 21.2 70.2 19 -3.2 26.3
15:00 1015 29.97 845 24.95 21.5 70.7 19 -2.8 26.9
15:05 1015 29.97 844 24.92 21.6 70.9 17 -3.9 24.9
15:10 1015 29.97 844 24.92 21.3 70.4 17 -4.6 23.8
15:15 1015 29.97 844 24.92 20.3 68.6 20 -3.1 26.4
15:20 1015 29.97 844 24.92 20.4 68.7 20 -3.4 25.8
15:25 1015 29.97 844 24.92 20.5 68.9 20 -3.2 26.2
15:30 1015 29.97 844 24.92 20.8 69.4 18 -4.2 24.5
15:35 1015 29.97 844 24.92 20.2 68.4 18 -4.5 24
15:40 1015 29.97 844 24.92 20.5 68.9 19 -4 24.8
15:45 1015 29.97 844 24.92 20.3 68.5 19 -4.1 24.5
15:50 1015 29.97 844 24.92 20 67.9 19 -4 24.9
15:55 1014 29.94 844 24.92 20.3 68.6 20 -3.2 26.3
16:00 1014 29.94 844 24.92 20.4 68.8 20 -2.8 26.9
16:05 1014 29.94 843 24.89 20.1 68.2 21 -2.5 27.6
16:10 1014 29.94 843 24.89 20.4 68.7 21 -2.6 27.3
16:15 1014 29.94 843 24.89 20.3 68.5 20 -3.1 26.4
16:20 1014 29.94 843 24.89 20.2 68.3 21 -2.7 27.1
16:25 1014 29.94 843 24.89 20.1 68.1 20 -3.1 26.4
16:30 1014 29.94 843 24.89 20.1 68.1 20 -3.2 26.3
16:35 1014 29.94 843 24.89 20.5 68.9 21 -2.7 27.2
16:40 1014 29.94 843 24.89 20.6 69 20 -2.8 27
16:45 1014 29.94 843 24.89 20.1 68.1 20 -3.6 25.5
16:50 1014 29.94 843 24.89 19.8 67.6 20 -3.4 25.8
16:55 1014 29.94 843 24.89 20 68 20 -3.8 25.2
17:00 1014 29.94 843 24.89 20 68 19 -3.9 24.9
17:05 1014 29.94 843 24.89 19.6 67.3 20 -4.1 24.6
17:10 1014 29.94 843 24.89 19.4 66.8 21 -3.3 26
17:15 1014 29.94 843 24.89 19.5 67 18 -5.1 22.7
17:20 1014 29.94 843 24.89 19.6 67.3 18 -5.4 22.3
17:25 1013 29.91 843 24.89 19.5 67.1 17 -5.7 21.7
17:30 1013 29.91 843 24.89 19.5 67.2 17 -5.9 21.5
17:35 1013 29.91 843 24.89 19.6 67.4 19 -4.7 23.6
17:40 1013 29.91 843 24.89 19.6 67.2 18 -5.1 22.8
17:45 1013 29.91 843 24.89 19.6 67.2 18 -5.5 22.1
17:50 1013 29.91 843 24.89 20 68.1 18 -4.8 23.4
17:55 1013 29.91 843 24.89 19.8 67.6 18 -4.9 23.3
18:00 1013 29.91 843 24.89 19.5 67.2 18 -5.4 22.3
18:05 1013 29.91 843 24.89 19.2 66.5 18 -5.9 21.3
18:10 1013 29.91 843 24.89 18.8 65.8 19 -5.3 22.5
18:15 1013 29.91 843 24.89 18 64.5 21 -4.5 23.9
18:20 1014 29.94 843 24.89 17.8 64 21 -4.9 23.2
18:25 1014 29.94 843 24.89 18.1 64.5 21 -4.8 23.4
18:30 1014 29.94 843 24.89 18 64.3 21 -4.3 24.3
18:35 1014 29.94 843 24.89 18.1 64.6 22 -3.8 25.1
18:40 1013 29.91 843 24.89 18.1 64.5 18 -6.3 20.6
18:45 1013 29.91 843 24.89 18.2 64.7 18 -6.1 21
18:50 1013 29.91 843 24.89 18.5 65.3 20 -5 22.9
18:55 1013 29.91 843 24.89 18.7 65.7 20 -4.7 23.6
19:00 1013 29.91 843 24.89 19 66.1 19 -4.8 23.4
19:05 1013 29.91 843 24.89 18.9 66.1 20 -4.1 24.6
19:10 1013 29.91 843 24.89 18.8 65.8 22 -3.4 25.9
19:15 1013 29.91 843 24.89 18.2 64.7 23 -3 26.6
19:20 1013 29.91 843 24.89 17.9 64.1 24 -2.8 27
19:25 1013 29.91 843 24.89 17.7 63.8 24 -3.2 26.3
19:30 1013 29.91 843 24.89 17.5 63.5 25 -2.8 26.9
19:35 1013 29.91 842 24.86 17.3 63.1 25 -2.7 27.2
19:40 1013 29.91 843 24.89 17.1 62.8 25 -3.1 26.5
19:45 1013 29.91 843 24.89 17 62.6 25 -3 26.6
19:50 1014 29.94 843 24.89 16.9 62.5 26 -2.5 27.4
19:55 1014 29.94 843 24.89 17 62.5 28 -1.4 29.5
20:00 1014 29.94 843 24.89 16.7 62.1 29 -1.3 29.6
20:05 1014 29.94 843 24.89 16.6 61.9 27 -2.3 27.9
20:10 1014 29.94 843 24.89 16.6 61.8 26 -2.8 27
20:15 1014 29.94 843 24.89 16.7 62.1 25 -3.4 25.9
20:20 1014 29.94 843 24.89 16.6 61.8 27 -2.2 28
20:25 1014 29.94 843 24.89 16.3 61.4 27 -2.8 27
20:30 1014 29.94 843 24.89 16.3 61.4 26 -2.9 26.7
20:35 1014 29.94 843 24.89 16.4 61.5 27 -2.8 27
20:40 1014 29.94 843 24.89 16.4 61.5 27 -2.7 27.2
20:45 1014 29.94 843 24.89 16.4 61.6 27 -2.7 27.1
20:50 1014 29.94 843 24.89 16.4 61.6 27 -2.6 27.2
20:55 1014 29.94 843 24.89 16.2 61.1 28 -2.4 27.6
21:00 1014 29.94 843 24.89 16 60.8 28 -2.3 27.8
21:05 1014 29.94 844 24.92 15.7 60.2 30 -1.6 29.2
21:10 1014 29.94 844 24.92 15.3 59.6 32 -1.2 29.8
21:15 1014 29.94 844 24.92 15.1 59.2 32 -1.2 29.9
21:20 1014 29.94 844 24.92 15.2 59.4 28 -2.9 26.8
21:25 1014 29.94 844 24.92 15.7 60.3 28 -2.6 27.3
21:30 1014 29.94 844 24.92 15.9 60.5 28 -2.7 27.2
21:35 1014 29.94 844 24.92 15.9 60.7 28 -2.5 27.5
21:40 1014 29.94 843 24.89 15.8 60.5 28 -2.7 27.2
21:45 1014 29.94 843 24.89 15.8 60.4 28 -2.5 27.5
21:50 1014 29.94 843 24.89 15.7 60.2 29 -2.3 27.8
21:55 1014 29.94 843 24.89 15.5 59.9 29 -2.1 28.2
22:00 1014 29.94 844 24.92 15.1 59.2 31 -1.8 28.8
22:05 1014 29.94 844 24.92 14.8 58.6 32 -1.6 29.1
22:10 1014 29.94 844 24.92 14.4 57.9 34 -1.4 29.5
22:15 1014 29.94 844 24.92 14.2 57.5 34 -1.3 29.7
22:20 1014 29.94 844 24.92 14 57.3 34 -1.6 29.2
22:25 1014 29.94 844 24.92 14.2 57.5 34 -1.4 29.5
22:30 1014 29.94 844 24.92 14 57.2 34 -1.5 29.2
22:35 1014 29.94 844 24.92 14.4 57.8 33 -1.8 28.8
22:40 1014 29.94 844 24.92 14.6 58.3 31 -2.2 28.1
22:45 1015 29.97 844 24.92 14.9 58.8 31 -2.1 28.3
22:50 1015 29.97 844 24.92 15 59 31 -1.7 28.9
22:55 1015 29.97 844 24.92 14.9 58.8 32 -1.4 29.5
23:00 1015 29.97 844 24.92 14.6 58.4 34 -0.8 30.6
23:05 1015 29.97 844 24.92 14.5 58.1 34 -0.9 30.4
23:10 1015 29.97 844 24.92 14.4 58 35 -0.8 30.6
23:15 1015 29.97 844 24.92 14.4 57.9 35 -0.6 30.8
23:20 1015 29.97 844 24.92 14.3 57.7 36 -0.5 31.1
23:25 1015 29.97 844 24.92 14 57.3 39 0.3 32.5
23:30 1015 29.97 844 24.92 13.8 56.9 40 0.5 33
23:35 1015 29.97 844 24.92 13.7 56.6 41 0.8 33.4
23:40 1015 29.97 844 24.92 13.5 56.3 43 1.3 34.4
23:45 1015 29.97 844 24.92 13.3 55.9 45 1.7 35.1
23:50 1015 29.97 844 24.92 13.1 55.6 48 2.4 36.3
23:55 1015 29.97 844 24.92 12.9 55.2 48 2.3 36.2
24:00 1015 29.97 844 24.92 12.4 54.2 50 2.3 36.2